createdAt,value
2022-09-14T00:01:26.903Z,95.68
2022-09-14T00:04:15.442Z,95.71
2022-09-14T00:06:42.781Z,95.75
2022-09-14T00:09:15.017Z,95.95
2022-09-14T00:11:41.537Z,96.12
2022-09-14T00:14:08.191Z,95.98
2022-09-14T00:16:38.603Z,96.16
2022-09-14T00:19:08.321Z,96.37
2022-09-14T00:21:39.292Z,96.58
2022-09-14T00:24:07.286Z,96.85
2022-09-14T00:26:34.588Z,96.71
2022-09-14T00:29:04.714Z,96.68
2022-09-14T00:31:37.222Z,96.84
2022-09-14T00:34:06.404Z,96.79
2022-09-14T00:36:37.286Z,96.70
2022-09-14T00:39:04.244Z,96.80
2022-09-14T00:41:34.243Z,96.81
2022-09-14T00:44:05.361Z,96.57
2022-09-14T00:46:36.946Z,96.58
2022-09-14T00:49:07.704Z,96.53
2022-09-14T00:51:37.478Z,96.49
2022-09-14T00:54:06.909Z,96.35
2022-09-14T00:56:34.081Z,96.20
2022-09-14T00:59:09.345Z,96.22
2022-09-14T01:01:36.406Z,96.41
2022-09-14T01:04:03.847Z,96.42
2022-09-14T01:06:43.653Z,96.29
2022-09-14T01:09:16.887Z,96.20
2022-09-14T01:12:02.083Z,96.49
2022-09-14T01:14:39.178Z,96.23
2022-09-14T01:17:13.605Z,96.04
2022-09-14T01:20:00.583Z,96.05
2022-09-14T01:22:50.452Z,96.08
2022-09-14T01:25:49.548Z,95.96
2022-09-14T01:28:25.061Z,95.87
2022-09-14T01:30:55.683Z,95.92
2022-09-14T01:33:38.135Z,95.89
2022-09-14T01:36:09.150Z,95.86
2022-09-14T01:38:47.357Z,95.64
2022-09-14T01:41:18.290Z,95.91
2022-09-14T01:43:51.737Z,95.89
2022-09-14T01:46:22.559Z,95.82
2022-09-14T01:49:03.068Z,95.55
2022-09-14T01:51:39.622Z,95.44
2022-09-14T01:54:31.363Z,95.56
2022-09-14T01:57:09.801Z,95.64
2022-09-14T01:59:40.751Z,95.70
2022-09-14T02:02:14.017Z,95.77
2022-09-14T02:04:53.061Z,95.69
2022-09-14T02:07:20.447Z,95.72
2022-09-14T02:09:48.320Z,95.67
2022-09-14T02:12:15.868Z,95.73
2022-09-14T02:14:45.142Z,95.85
2022-09-14T02:17:13.347Z,95.79
2022-09-14T02:19:47.614Z,95.78
2022-09-14T02:22:14.835Z,95.64
2022-09-14T02:24:41.871Z,95.46
2022-09-14T02:27:08.522Z,95.48
2022-09-14T02:29:35.782Z,95.33
2022-09-14T02:32:05.520Z,95.28
2022-09-14T02:34:37.986Z,95.20
2022-09-14T02:37:13.724Z,95.05
2022-09-14T02:39:51.809Z,95.13
2022-09-14T02:42:30.916Z,95.01
2022-09-14T02:45:11.181Z,94.96
2022-09-14T02:47:56.968Z,94.88
2022-09-14T02:50:51.573Z,94.94
2022-09-14T02:53:30.782Z,94.58
2022-09-14T02:56:07.835Z,94.63
2022-09-14T02:58:37.113Z,94.57
2022-09-14T03:01:05.556Z,94.56
2022-09-14T03:03:35.573Z,94.73
2022-09-14T03:06:03.746Z,94.60
2022-09-14T03:08:30.500Z,94.57
2022-09-14T03:10:57.512Z,94.35
2022-09-14T03:13:24.765Z,94.64
2022-09-14T03:15:51.571Z,94.67
2022-09-14T03:18:18.707Z,94.66
2022-09-14T03:20:45.623Z,94.64
2022-09-14T03:23:13.078Z,94.60
2022-09-14T03:25:42.665Z,94.69
2022-09-14T03:28:11.131Z,94.65
2022-09-14T03:30:38.084Z,94.59
2022-09-14T03:33:04.805Z,94.43
2022-09-14T03:35:32.219Z,94.46
2022-09-14T03:37:59.874Z,94.25
2022-09-14T03:40:27.470Z,94.18
2022-09-14T03:42:54.628Z,94.07
2022-09-14T03:45:21.851Z,94.03
2022-09-14T03:47:49.534Z,94.04
2022-09-14T03:50:19.286Z,93.74
2022-09-14T03:52:46.255Z,93.55
2022-09-14T03:55:12.911Z,93.62
2022-09-14T03:57:39.846Z,93.46
2022-09-14T04:00:09.057Z,93.33
2022-09-14T04:02:38.103Z,93.49
2022-09-14T04:05:05.541Z,93.50
2022-09-14T04:07:32.622Z,93.46
2022-09-14T04:09:59.238Z,93.43
2022-09-14T04:12:26.159Z,93.52
2022-09-14T04:14:52.886Z,93.45
2022-09-14T04:17:19.495Z,93.66
2022-09-14T04:19:46.436Z,93.43
2022-09-14T04:22:13.088Z,93.22
2022-09-14T04:24:39.840Z,93.16
2022-09-14T04:27:06.803Z,92.93
2022-09-14T04:29:33.486Z,92.72
2022-09-14T04:32:00.146Z,92.62
2022-09-14T04:34:27.203Z,93.01
2022-09-14T04:36:54.012Z,92.95
2022-09-14T04:39:20.726Z,92.68
2022-09-14T04:41:47.812Z,92.54
2022-09-14T04:44:14.670Z,92.48
2022-09-14T04:46:46.133Z,92.22
2022-09-14T04:49:16.559Z,91.93
2022-09-14T04:51:43.300Z,91.41
2022-09-14T04:54:13.331Z,91.01
2022-09-14T04:56:40.843Z,90.89
2022-09-14T04:59:08.075Z,90.39
2022-09-14T05:01:37.387Z,90.12
2022-09-14T05:04:05.867Z,90.13
2022-09-14T05:06:35.204Z,89.93
2022-09-14T05:09:04.469Z,89.73
2022-09-14T05:11:33.717Z,89.26
2022-09-14T05:14:01.251Z,88.29
2022-09-14T05:16:36.418Z,88.03
2022-09-14T05:19:07.103Z,88.07
2022-09-14T05:21:36.023Z,87.75
2022-09-14T05:24:06.235Z,87.34
2022-09-14T05:26:33.537Z,87.12
2022-09-14T05:29:01.744Z,87.59
2022-09-14T05:31:31.125Z,87.89
2022-09-14T05:33:58.657Z,87.53
2022-09-14T05:36:25.855Z,86.69
2022-09-14T05:38:52.881Z,86.61
2022-09-14T05:41:19.615Z,86.44
2022-09-14T05:43:46.500Z,87.14
2022-09-14T05:46:17.052Z,86.86
2022-09-14T05:48:44.437Z,86.87
2022-09-14T05:51:14.659Z,86.76
2022-09-14T05:53:42.593Z,86.24
2022-09-14T05:56:13.188Z,85.95
2022-09-14T05:58:41.363Z,86.50
2022-09-14T06:01:11.259Z,86.32
2022-09-14T06:03:38.951Z,86.17
2022-09-14T06:06:07.687Z,86.16
2022-09-14T06:08:35.299Z,85.94
2022-09-14T06:11:09.379Z,85.04
2022-09-14T06:13:37.720Z,84.63
2022-09-14T06:16:13.923Z,83.64
2022-09-14T06:18:42.375Z,83.40
2022-09-14T06:21:11.224Z,83.52
2022-09-14T06:23:38.507Z,83.54
2022-09-14T06:26:05.817Z,83.17
2022-09-14T06:28:35.401Z,83.00
2022-09-14T06:31:04.650Z,82.35
2022-09-14T06:33:32.107Z,82.12
2022-09-14T06:36:09.758Z,81.56
2022-09-14T06:38:36.465Z,81.07
2022-09-14T06:41:06.973Z,80.79
2022-09-14T06:43:37.532Z,81.41
2022-09-14T06:46:06.931Z,80.52
2022-09-14T06:48:40.123Z,80.19
2022-09-14T06:51:19.314Z,80.54
2022-09-14T06:53:46.966Z,80.46
2022-09-14T06:56:14.999Z,79.52
2022-09-14T06:58:42.059Z,79.88
2022-09-14T07:01:14.401Z,79.24
2022-09-14T07:03:43.868Z,78.80
2022-09-14T07:06:22.608Z,79.18
2022-09-14T07:08:50.863Z,78.65
2022-09-14T07:11:20.150Z,78.60
2022-09-14T07:13:47.530Z,78.38
2022-09-14T07:16:15.484Z,78.27
2022-09-14T07:18:42.205Z,77.35
2022-09-14T07:21:14.828Z,77.27
2022-09-14T07:23:44.006Z,77.21
2022-09-14T07:26:16.864Z,77.92
2022-09-14T07:28:45.839Z,78.83
2022-09-14T07:31:33.677Z,77.83
2022-09-14T07:34:03.302Z,77.83
2022-09-14T07:36:34.758Z,76.60
2022-09-14T07:39:04.867Z,76.50
2022-09-14T07:41:34.140Z,76.96
2022-09-14T07:44:02.537Z,76.37
2022-09-14T07:46:33.198Z,74.70
2022-09-14T07:49:02.741Z,74.59
2022-09-14T07:51:31.231Z,73.19
2022-09-14T07:54:00.823Z,73.14
2022-09-14T07:56:28.579Z,73.31
2022-09-14T07:59:11.598Z,72.43
2022-09-14T08:01:44.972Z,71.79
2022-09-14T08:04:11.819Z,71.13
2022-09-14T08:06:39.056Z,70.38
2022-09-14T08:09:07.686Z,69.72
2022-09-14T08:11:35.217Z,68.22
2022-09-14T08:14:04.666Z,68.56
2022-09-14T08:16:32.857Z,69.01
2022-09-14T08:19:01.517Z,67.72
2022-09-14T08:21:30.221Z,67.41
2022-09-14T08:23:59.742Z,68.07
2022-09-14T08:26:27.293Z,67.86
2022-09-14T08:28:55.469Z,68.54
2022-09-14T08:31:24.834Z,66.33
2022-09-14T08:34:02.788Z,65.25
2022-09-14T08:36:32.766Z,66.49
2022-09-14T08:39:01.314Z,66.12
2022-09-14T08:41:45.409Z,66.89
2022-09-14T08:44:11.994Z,67.16
2022-09-14T08:46:56.113Z,65.83
2022-09-14T08:49:39.889Z,67.10
2022-09-14T08:52:29.767Z,66.23
2022-09-14T08:54:59.364Z,66.79
2022-09-14T08:57:38.759Z,65.63
2022-09-14T09:00:15.320Z,66.66
2022-09-14T09:03:09.868Z,66.42
2022-09-14T09:05:43.878Z,66.29
2022-09-14T09:08:19.660Z,65.48
2022-09-14T09:10:47.975Z,66.24
2022-09-14T09:13:19.147Z,66.29
2022-09-14T09:15:55.299Z,65.38
2022-09-14T09:18:42.693Z,65.73
2022-09-14T09:21:22.957Z,66.66
2022-09-14T09:23:49.899Z,66.89
2022-09-14T09:26:28.386Z,66.95
2022-09-14T09:28:58.611Z,66.99
2022-09-14T09:31:34.785Z,67.73
2022-09-14T09:34:03.915Z,67.02
2022-09-14T09:36:37.239Z,68.23
2022-09-14T09:39:05.601Z,68.90
2022-09-14T09:41:44.410Z,66.87
2022-09-14T09:44:12.208Z,67.74
2022-09-14T09:47:01.021Z,67.97
2022-09-14T09:49:39.439Z,68.57
2022-09-14T09:52:10.227Z,68.23
2022-09-14T09:54:39.547Z,67.26
2022-09-14T09:57:21.800Z,67.80
2022-09-14T09:59:48.993Z,67.59
2022-09-14T10:02:31.927Z,67.98
2022-09-14T10:05:04.711Z,67.29
2022-09-14T10:07:53.079Z,67.12
2022-09-14T10:10:26.837Z,67.36
2022-09-14T10:12:56.410Z,67.69
2022-09-14T10:15:28.067Z,67.21
2022-09-14T10:18:13.237Z,68.41
2022-09-14T10:21:05.558Z,68.19
2022-09-14T10:23:38.515Z,68.98
2022-09-14T10:26:14.711Z,70.19
2022-09-14T10:28:46.857Z,71.20
2022-09-14T10:31:19.460Z,71.85
2022-09-14T10:33:47.750Z,72.42
2022-09-14T10:36:28.598Z,73.14
2022-09-14T10:39:31.010Z,73.16
2022-09-14T10:42:07.265Z,72.86
2022-09-14T10:44:59.485Z,72.88
2022-09-14T10:47:41.633Z,73.55
2022-09-14T10:50:27.261Z,73.12
2022-09-14T10:52:57.114Z,72.89
2022-09-14T10:55:44.393Z,74.70
2022-09-14T10:58:27.651Z,74.41
2022-09-14T11:00:59.211Z,72.40
2022-09-14T11:03:30.998Z,72.42
2022-09-14T11:06:03.996Z,73.00
2022-09-14T11:08:37.899Z,74.18
2022-09-14T11:11:28.255Z,74.55
2022-09-14T11:14:02.572Z,75.58
2022-09-14T11:17:07.171Z,76.99
2022-09-14T11:20:02.172Z,77.27
2022-09-14T11:22:47.387Z,78.74
2022-09-14T11:25:22.134Z,79.47
2022-09-14T11:27:54.936Z,80.27
2022-09-14T11:30:24.941Z,80.41
2022-09-14T11:32:57.834Z,81.65
2022-09-14T11:35:29.062Z,80.78
2022-09-14T11:38:03.760Z,80.57
2022-09-14T11:40:46.088Z,79.87
2022-09-14T11:43:15.872Z,80.70
2022-09-14T11:45:52.820Z,82.18
2022-09-14T11:48:46.169Z,80.67
2022-09-14T11:51:17.227Z,80.92
2022-09-14T11:53:46.284Z,79.48
2022-09-14T11:56:32.465Z,79.51
2022-09-14T11:59:03.571Z,80.07
2022-09-14T12:01:32.749Z,79.78
2022-09-14T12:04:18.468Z,80.27
2022-09-14T12:06:51.296Z,79.63
2022-09-14T12:09:20.896Z,80.39
2022-09-14T12:11:55.446Z,80.63
2022-09-14T12:14:28.937Z,80.73
2022-09-14T12:20:26.460Z,80.23
2022-09-14T12:23:15.404Z,79.86
2022-09-14T12:25:55.469Z,81.31
2022-09-14T12:28:37.669Z,80.38
2022-09-14T12:31:04.730Z,81.17
2022-09-14T12:33:34.349Z,79.78
2022-09-14T12:36:11.518Z,79.94
2022-09-14T12:38:38.500Z,80.32
2022-09-14T12:41:11.042Z,79.49
2022-09-14T12:43:38.125Z,80.30
2022-09-14T12:46:21.265Z,80.17
2022-09-14T12:48:48.389Z,79.96
2022-09-14T12:51:27.294Z,80.53
2022-09-14T12:54:09.223Z,80.68
2022-09-14T12:57:07.411Z,81.19
2022-09-14T12:59:48.053Z,81.25
2022-09-14T13:02:54.430Z,81.98
2022-09-14T13:05:25.214Z,82.13
2022-09-14T13:07:53.582Z,82.04
2022-09-14T13:10:31.648Z,82.67
2022-09-14T13:13:02.336Z,82.55
2022-09-14T13:15:34.830Z,83.09
2022-09-14T13:18:17.304Z,83.51
2022-09-14T13:21:21.206Z,82.71
2022-09-14T13:23:48.575Z,83.20
2022-09-14T13:26:26.022Z,83.38
2022-09-14T13:28:54.964Z,84.21
2022-09-14T13:31:31.900Z,84.50
2022-09-14T13:33:59.971Z,85.05
2022-09-14T13:36:30.293Z,85.20
2022-09-14T13:39:01.661Z,85.71
2022-09-14T13:41:30.115Z,86.32
2022-09-14T13:43:57.993Z,85.46
2022-09-14T13:46:26.713Z,86.55
2022-09-14T13:48:54.725Z,87.54
2022-09-14T13:51:27.040Z,88.25
2022-09-14T13:53:56.517Z,88.93
2022-09-14T13:56:32.565Z,89.98
2022-09-14T13:59:10.572Z,90.40
2022-09-14T14:01:46.358Z,90.31
2022-09-14T14:04:34.818Z,90.72
2022-09-14T14:07:03.346Z,90.76
2022-09-14T14:09:44.919Z,91.21
2022-09-14T14:12:21.298Z,91.62
2022-09-14T14:15:03.806Z,91.26
2022-09-14T14:17:35.346Z,91.79
2022-09-14T14:20:30.931Z,92.01
2022-09-14T14:23:22.633Z,91.81
2022-09-14T14:25:52.127Z,91.99
2022-09-14T14:28:28.661Z,91.21
2022-09-14T14:30:57.387Z,91.74
2022-09-14T14:33:25.289Z,92.17
2022-09-14T14:35:54.429Z,92.31
2022-09-14T14:38:23.434Z,92.85
2022-09-14T14:40:51.752Z,92.66
2022-09-14T14:43:25.377Z,92.74
2022-09-14T14:45:57.981Z,92.75
2022-09-14T14:48:26.267Z,92.84
2022-09-14T14:50:54.983Z,92.98
2022-09-14T14:53:23.364Z,92.88
2022-09-14T14:55:50.170Z,93.20
2022-09-14T14:58:19.160Z,93.21
2022-09-14T15:00:46.082Z,93.50
2022-09-14T15:03:13.725Z,93.83
2022-09-14T15:05:44.676Z,94.02
2022-09-14T15:08:12.877Z,94.21
2022-09-14T15:10:40.994Z,93.96
2022-09-14T15:13:09.928Z,94.31
2022-09-14T15:15:36.535Z,94.24
2022-09-14T15:18:03.634Z,94.36
2022-09-14T15:20:30.341Z,94.43
2022-09-14T15:22:57.138Z,95.04
2022-09-14T15:25:24.029Z,95.03
2022-09-14T15:27:50.754Z,94.96
2022-09-14T15:30:17.572Z,94.97
2022-09-14T15:32:44.776Z,95.19
2022-09-14T15:35:13.678Z,95.22
2022-09-14T15:37:41.301Z,95.14
2022-09-14T15:40:09.453Z,95.32
2022-09-14T15:42:36.168Z,95.54
2022-09-14T15:45:03.850Z,95.73
2022-09-14T15:47:35.599Z,95.76
2022-09-14T15:50:03.913Z,96.08
2022-09-14T15:52:31.050Z,96.48
2022-09-14T15:54:57.760Z,96.36
2022-09-14T15:57:24.427Z,96.36
2022-09-14T15:59:54.049Z,96.19
2022-09-14T16:02:20.907Z,96.30
2022-09-14T16:04:48.001Z,96.19
2022-09-14T16:07:15.644Z,96.40
2022-09-14T16:09:42.823Z,96.27
2022-09-14T16:12:11.320Z,96.34
2022-09-14T16:14:38.291Z,96.25
2022-09-14T16:17:05.862Z,96.35
2022-09-14T16:19:33.045Z,96.38
2022-09-14T16:21:59.894Z,96.30
2022-09-14T16:24:27.265Z,96.45
2022-09-14T16:26:54.746Z,96.46
2022-09-14T16:29:24.146Z,96.27
2022-09-14T16:31:51.886Z,96.30
2022-09-14T16:34:19.860Z,96.29
2022-09-14T16:36:47.451Z,96.38
2022-09-14T16:39:17.373Z,96.47
2022-09-14T16:41:45.004Z,96.39
2022-09-14T16:44:20.137Z,96.46
2022-09-14T16:46:48.847Z,96.93
2022-09-14T16:49:22.301Z,97.02
2022-09-14T16:51:52.022Z,97.33
2022-09-14T16:54:21.766Z,97.25
2022-09-14T16:56:48.725Z,97.19
2022-09-14T16:59:17.605Z,97.13
2022-09-14T17:01:47.155Z,97.45
2022-09-14T17:04:21.503Z,97.67
2022-09-14T17:06:50.434Z,97.69
2022-09-14T17:09:20.672Z,97.90
2022-09-14T17:11:48.622Z,97.94
2022-09-14T17:14:21.745Z,98.12
2022-09-14T17:16:49.447Z,98.29
2022-09-14T17:19:16.894Z,98.21
2022-09-14T17:21:45.206Z,98.19
2022-09-14T17:24:14.313Z,98.51
2022-09-14T17:26:42.556Z,98.59
2022-09-14T17:29:10.287Z,98.52
2022-09-14T17:31:40.164Z,98.51
2022-09-14T17:34:09.123Z,98.44
2022-09-14T17:36:35.793Z,98.45
2022-09-14T17:39:09.180Z,98.51
2022-09-14T17:41:39.062Z,98.66
2022-09-14T17:44:07.926Z,98.54
2022-09-14T17:46:35.981Z,98.50
2022-09-14T17:49:05.278Z,98.40
2022-09-14T17:51:34.258Z,98.38
2022-09-14T17:54:01.369Z,98.38
2022-09-14T17:56:29.574Z,98.31
2022-09-14T17:59:08.425Z,98.40
2022-09-14T18:01:35.269Z,98.22
2022-09-14T18:04:06.632Z,98.27
2022-09-14T18:06:35.737Z,98.25
2022-09-14T18:09:07.880Z,98.18
2022-09-14T18:11:34.825Z,98.18
2022-09-14T18:14:02.952Z,98.23
2022-09-14T18:16:29.996Z,98.29
2022-09-14T18:18:59.534Z,98.43
2022-09-14T18:21:26.613Z,98.35
2022-09-14T18:23:55.281Z,98.30
2022-09-14T18:26:23.192Z,98.36
2022-09-14T18:28:51.440Z,98.48
2022-09-14T18:31:19.793Z,98.47
2022-09-14T18:33:48.466Z,98.45
2022-09-14T18:36:15.295Z,98.60
2022-09-14T18:38:42.754Z,98.75
2022-09-14T18:41:11.578Z,98.75
2022-09-14T18:43:41.910Z,98.69
2022-09-14T18:46:08.942Z,98.61
2022-09-14T18:48:35.610Z,98.53
2022-09-14T18:51:04.566Z,98.76
2022-09-14T18:53:32.214Z,98.74
2022-09-14T18:56:07.255Z,98.68
2022-09-14T18:58:36.292Z,98.59
2022-09-14T19:01:03.696Z,98.48
2022-09-14T19:03:32.059Z,98.55
2022-09-14T19:06:04.691Z,98.70
2022-09-14T19:08:31.772Z,98.54
2022-09-14T19:11:08.036Z,98.13
2022-09-14T19:13:35.784Z,98.04
2022-09-14T19:16:11.612Z,98.26
2022-09-14T19:18:39.520Z,98.42
2022-09-14T19:21:10.832Z,98.36
2022-09-14T19:23:38.535Z,98.41
2022-09-14T19:26:17.834Z,98.45
2022-09-14T19:28:45.095Z,98.66
2022-09-14T19:31:14.623Z,98.76
2022-09-14T19:33:45.309Z,98.94
2022-09-14T19:36:16.177Z,99.13
2022-09-14T19:38:43.208Z,99.15
2022-09-14T19:41:10.288Z,99.14
2022-09-14T19:43:37.752Z,99.09
2022-09-14T19:46:06.034Z,99.12
2022-09-14T19:48:33.229Z,99.03
2022-09-14T19:51:01.491Z,98.87
2022-09-14T19:53:30.109Z,98.71
2022-09-14T19:55:57.048Z,99.03
2022-09-14T19:58:26.241Z,99.01
2022-09-14T20:00:54.932Z,99.19
2022-09-14T20:03:23.043Z,99.20
2022-09-14T20:06:00.172Z,99.09
2022-09-14T20:08:27.976Z,99.00
2022-09-14T20:10:54.932Z,99.07
2022-09-14T20:13:21.957Z,99.20
2022-09-14T20:15:49.128Z,99.27
2022-09-14T20:18:15.850Z,99.26
2022-09-14T20:20:42.535Z,99.25
2022-09-14T20:23:09.430Z,99.37
2022-09-14T20:25:36.277Z,99.42
2022-09-14T20:28:02.946Z,99.42
2022-09-14T20:30:29.933Z,99.48
2022-09-14T20:32:57.012Z,99.60
2022-09-14T20:35:23.671Z,99.60
2022-09-14T20:37:50.696Z,99.71
2022-09-14T20:40:17.600Z,99.75
2022-09-14T20:42:44.266Z,99.81
2022-09-14T20:45:11.718Z,100.00
2022-09-14T20:47:38.525Z,100.00
2022-09-14T20:50:05.804Z,100.00
2022-09-14T20:52:32.765Z,100.00
2022-09-14T20:54:59.424Z,100.00
2022-09-14T20:57:26.108Z,100.00
2022-09-14T20:59:53.046Z,100.00
2022-09-14T21:02:19.780Z,100.00
2022-09-14T21:04:47.227Z,100.00
2022-09-14T21:07:14.208Z,100.00
2022-09-14T21:09:40.840Z,100.00
2022-09-14T21:12:11.610Z,100.00
2022-09-14T21:14:38.569Z,100.00
2022-09-14T21:17:05.186Z,100.00
2022-09-14T21:19:31.977Z,100.00
2022-09-14T21:21:59.042Z,100.00
2022-09-14T21:24:26.137Z,100.00
2022-09-14T21:26:52.731Z,100.00
2022-09-14T21:29:23.646Z,100.00
2022-09-14T21:31:51.337Z,100.00
2022-09-14T21:34:18.364Z,100.00
2022-09-14T21:36:47.662Z,100.00
2022-09-14T21:39:17.199Z,100.00
2022-09-14T21:41:44.923Z,100.00
2022-09-14T21:44:13.407Z,100.00
2022-09-14T21:46:40.541Z,100.00
2022-09-14T21:49:07.258Z,100.00
2022-09-14T21:51:36.834Z,100.00
2022-09-14T21:54:06.617Z,100.00
2022-09-14T21:56:36.868Z,100.00
2022-09-14T21:59:08.707Z,100.00
2022-09-14T22:01:35.577Z,100.00
2022-09-14T22:04:03.867Z,100.00
2022-09-14T22:06:31.913Z,100.00
2022-09-14T22:08:59.969Z,100.00
2022-09-14T22:11:32.835Z,100.00
2022-09-14T22:14:07.557Z,100.00
2022-09-14T22:16:36.814Z,100.00
2022-09-14T22:19:12.050Z,100.00
2022-09-14T22:21:39.761Z,100.00
2022-09-14T22:24:11.448Z,100.00
2022-09-14T22:26:39.747Z,100.00
2022-09-14T22:29:08.986Z,100.00
2022-09-14T22:31:37.491Z,100.00
2022-09-14T22:34:04.318Z,100.00
2022-09-14T22:36:31.607Z,100.00
2022-09-14T22:39:00.205Z,100.00
2022-09-14T22:41:28.362Z,100.00
2022-09-14T22:43:56.116Z,100.00
2022-09-14T22:46:24.264Z,100.00
2022-09-14T22:48:51.834Z,100.00
2022-09-14T22:51:23.041Z,100.00
2022-09-14T22:53:50.288Z,100.00
2022-09-14T22:56:23.701Z,100.00
2022-09-14T22:58:51.303Z,100.00
2022-09-14T23:01:21.949Z,100.00
2022-09-14T23:03:49.397Z,100.00
2022-09-14T23:06:16.357Z,100.00
2022-09-14T23:08:43.056Z,100.00
2022-09-14T23:11:11.906Z,100.00
2022-09-14T23:13:40.616Z,100.00
2022-09-14T23:16:15.804Z,100.00
2022-09-14T23:18:43.043Z,100.00
2022-09-14T23:21:10.198Z,100.00
2022-09-14T23:23:38.285Z,100.00
2022-09-14T23:26:07.713Z,100.00
2022-09-14T23:28:35.014Z,100.00
2022-09-14T23:31:02.105Z,100.00
2022-09-14T23:33:30.040Z,100.00
2022-09-14T23:35:57.392Z,100.00
2022-09-14T23:38:24.487Z,100.00
2022-09-14T23:40:51.492Z,100.00
2022-09-14T23:43:19.279Z,100.00
2022-09-14T23:45:47.346Z,100.00
2022-09-14T23:48:15.299Z,100.00
2022-09-14T23:50:42.511Z,100.00
2022-09-14T23:53:09.229Z,100.00
2022-09-14T23:55:36.115Z,100.00
2022-09-14T23:58:03.351Z,100.00
